createdAt,value
2023-05-10T00:07:49.334Z,15.40
2023-05-10T00:17:53.048Z,15.20
2023-05-10T00:27:58.275Z,14.90
2023-05-10T00:38:01.943Z,14.90
2023-05-10T00:48:07.814Z,14.80
2023-05-10T00:58:11.481Z,14.80
2023-05-10T01:08:16.699Z,14.60
2023-05-10T01:18:22.749Z,14.60
2023-05-10T01:29:17.245Z,14.40
2023-05-10T01:39:28.040Z,14.40
2023-05-10T01:49:37.116Z,14.40
2023-05-10T01:59:45.304Z,14.30
2023-05-10T02:09:51.898Z,14.30
2023-05-10T02:19:58.535Z,14.10
2023-05-10T02:30:02.840Z,14.20
2023-05-10T02:40:09.824Z,14.10
2023-05-10T02:50:13.671Z,14.00
2023-05-10T03:00:19.253Z,13.90
2023-05-10T03:10:29.415Z,13.90
2023-05-10T03:20:42.594Z,14.00
2023-05-10T03:30:47.777Z,13.80
2023-05-10T03:40:52.718Z,13.90
2023-05-10T03:50:56.322Z,13.90
2023-05-10T04:01:01.305Z,13.90
2023-05-10T04:11:09.178Z,13.80
2023-05-10T04:21:17.227Z,13.80
2023-05-10T04:31:21.107Z,13.80
2023-05-10T04:41:26.224Z,14.00
2023-05-10T04:51:32.258Z,14.10
2023-05-10T05:01:37.327Z,14.40
2023-05-10T05:11:41.379Z,14.40
2023-05-10T05:21:46.364Z,14.50
2023-05-10T05:31:50.143Z,14.60
2023-05-10T05:41:55.163Z,14.50
2023-05-10T05:52:02.034Z,14.30
2023-05-10T06:02:09.912Z,14.50
2023-05-10T06:12:13.716Z,14.60
2023-05-10T06:22:18.982Z,14.70
2023-05-10T06:32:23.080Z,14.80
2023-05-10T06:42:28.337Z,14.70
2023-05-10T06:52:31.998Z,14.80
2023-05-10T07:02:37.071Z,14.90
2023-05-10T07:12:40.849Z,15.20
2023-05-10T07:22:45.910Z,15.50
2023-05-10T07:32:49.766Z,15.70
2023-05-10T07:42:54.854Z,15.50
2023-05-10T07:52:58.944Z,15.50
2023-05-10T08:03:04.118Z,15.50
2023-05-10T08:13:07.859Z,15.50
2023-05-10T08:23:14.198Z,15.50
2023-05-10T08:33:18.014Z,16.30
2023-05-10T08:43:23.081Z,17.00
2023-05-10T08:53:28.987Z,17.20
2023-05-10T09:03:34.353Z,17.50
2023-05-10T09:13:38.626Z,17.80
2023-05-10T09:23:48.646Z,17.50
2023-05-10T09:33:53.712Z,17.10
2023-05-10T09:43:58.999Z,17.00
2023-05-10T09:54:13.932Z,17.20
2023-05-10T10:04:21.433Z,17.60
2023-05-10T10:14:25.815Z,17.50
2023-05-10T10:24:30.891Z,17.40
2023-05-10T10:34:35.148Z,18.10
2023-05-10T10:44:42.560Z,17.40
2023-05-10T10:54:53.190Z,16.90
2023-05-10T11:04:58.213Z,17.50
2023-05-10T11:15:01.991Z,18.20
2023-05-10T11:25:09.067Z,18.20
2023-05-10T11:35:14.474Z,17.80
2023-05-10T11:45:19.829Z,17.70
2023-05-10T11:55:25.142Z,18.00
2023-05-10T12:05:34.397Z,18.60
2023-05-10T12:15:38.477Z,18.10
2023-05-10T12:25:43.715Z,17.40
2023-05-10T12:35:49.562Z,17.00
2023-05-10T12:45:54.588Z,17.00
2023-05-10T12:55:58.574Z,17.50
2023-05-10T13:06:03.830Z,18.10
2023-05-10T13:16:08.677Z,18.60
2023-05-10T13:26:14.184Z,18.60
2023-05-10T13:36:17.921Z,18.50
2023-05-10T13:46:22.942Z,18.70
2023-05-10T13:56:26.711Z,18.60
2023-05-10T14:06:31.672Z,19.50
2023-05-10T14:16:35.508Z,19.70
2023-05-10T14:26:40.533Z,19.70
2023-05-10T14:36:44.202Z,19.80
2023-05-10T14:46:49.311Z,20.10
2023-05-10T14:56:52.873Z,20.10
2023-05-10T15:07:00.120Z,20.00
2023-05-10T15:17:04.011Z,20.10
2023-05-10T15:27:09.671Z,20.40
2023-05-10T15:37:13.608Z,20.50
2023-05-10T15:47:18.764Z,20.50
2023-05-10T15:57:22.523Z,20.40
2023-05-10T16:07:27.677Z,20.00
2023-05-10T16:17:31.563Z,19.60
2023-05-10T16:27:37.106Z,19.20
2023-05-10T16:37:40.801Z,18.90
2023-05-10T16:47:46.173Z,18.70
2023-05-10T16:57:50.486Z,18.40
2023-05-10T17:07:55.976Z,18.30
2023-05-10T17:17:59.692Z,18.30
2023-05-10T17:28:04.806Z,18.20
2023-05-10T17:38:08.866Z,18.20
2023-05-10T17:48:13.910Z,18.10
2023-05-10T17:58:17.697Z,18.00
2023-05-10T18:08:26.694Z,17.70
2023-05-10T18:18:30.366Z,17.40
2023-05-10T18:28:35.601Z,17.30
2023-05-10T18:38:40.145Z,17.10
2023-05-10T18:48:45.097Z,16.90
2023-05-10T18:58:48.708Z,16.70
2023-05-10T19:08:53.770Z,16.60
2023-05-10T19:18:57.873Z,16.10
2023-05-10T19:29:03.533Z,15.50
2023-05-10T19:39:07.855Z,15.20
2023-05-10T19:49:12.954Z,15.00
2023-05-10T19:59:16.714Z,14.60
2023-05-10T20:09:21.644Z,14.20
2023-05-10T20:19:25.983Z,14.10
2023-05-10T20:29:32.415Z,14.00
2023-05-10T20:39:36.063Z,13.90
2023-05-10T20:49:41.274Z,13.80
2023-05-10T20:59:44.947Z,13.80
2023-05-10T21:09:49.981Z,13.90
2023-05-10T21:19:53.837Z,13.90
2023-05-10T21:29:59.110Z,13.90
2023-05-10T21:40:03.401Z,13.80
2023-05-10T21:50:10.402Z,13.70
2023-05-10T22:00:16.332Z,13.60
2023-05-10T22:10:21.846Z,13.40
2023-05-10T22:20:25.526Z,13.40
2023-05-10T22:30:32.785Z,13.20
2023-05-10T22:40:36.755Z,12.90
2023-05-10T22:50:41.843Z,12.90
2023-05-10T23:00:45.778Z,12.70
2023-05-10T23:10:51.058Z,12.60
2023-05-10T23:20:56.206Z,12.40
2023-05-10T23:31:01.475Z,12.30
2023-05-10T23:41:05.848Z,12.30
2023-05-10T23:51:10.844Z,12.10
